sensor_id;sensor_type;location;lat;lon;timestamp;temperature;humidity
43087;DHT22;28708;52.224;6.924;2023-02-28T00:00:23;2.50;99.90
43087;DHT22;28708;52.224;6.924;2023-02-28T00:02:50;2.60;99.90
43087;DHT22;28708;52.224;6.924;2023-02-28T00:05:18;2.60;99.90
43087;DHT22;28708;52.224;6.924;2023-02-28T00:07:44;2.60;99.90
43087;DHT22;28708;52.224;6.924;2023-02-28T00:10:13;2.60;99.90
43087;DHT22;28708;52.224;6.924;2023-02-28T00:12:40;2.60;99.90
43087;DHT22;28708;52.224;6.924;2023-02-28T00:15:07;2.60;99.90
43087;DHT22;28708;52.224;6.924;2023-02-28T00:17:33;2.60;99.90
43087;DHT22;28708;52.224;6.924;2023-02-28T00:19:59;2.60;99.90
43087;DHT22;28708;52.224;6.924;2023-02-28T00:22:42;2.70;99.90
43087;DHT22;28708;52.224;6.924;2023-02-28T00:25:09;2.70;99.90
43087;DHT22;28708;52.224;6.924;2023-02-28T00:27:36;2.70;99.90
43087;DHT22;28708;52.224;6.924;2023-02-28T00:30:04;2.70;99.90
43087;DHT22;28708;52.224;6.924;2023-02-28T00:32:30;2.70;99.90
43087;DHT22;28708;52.224;6.924;2023-02-28T00:34:56;2.70;99.90
43087;DHT22;28708;52.224;6.924;2023-02-28T00:37:22;2.70;99.90
43087;DHT22;28708;52.224;6.924;2023-02-28T00:39:48;2.60;99.90
43087;DHT22;28708;52.224;6.924;2023-02-28T00:42:15;2.60;99.90
43087;DHT22;28708;52.224;6.924;2023-02-28T00:44:40;2.60;99.90
43087;DHT22;28708;52.224;6.924;2023-02-28T00:47:06;2.60;99.90
43087;DHT22;28708;52.224;6.924;2023-02-28T00:49:32;2.60;99.90
43087;DHT22;28708;52.224;6.924;2023-02-28T00:51:58;2.50;99.90
43087;DHT22;28708;52.224;6.924;2023-02-28T00:54:25;2.50;99.90
43087;DHT22;28708;52.224;6.924;2023-02-28T00:56:51;2.60;99.90
43087;DHT22;28708;52.224;6.924;2023-02-28T00:59:17;2.60;99.90
43087;DHT22;28708;52.224;6.924;2023-02-28T01:01:44;2.50;99.90
43087;DHT22;28708;52.224;6.924;2023-02-28T01:04:11;2.60;99.90
43087;DHT22;28708;52.224;6.924;2023-02-28T01:06:36;2.60;99.90
43087;DHT22;28708;52.224;6.924;2023-02-28T01:09:04;2.60;99.90
43087;DHT22;28708;52.224;6.924;2023-02-28T01:11:30;2.60;99.90
43087;DHT22;28708;52.224;6.924;2023-02-28T01:13:56;2.60;99.90
43087;DHT22;28708;52.224;6.924;2023-02-28T01:16:22;2.60;99.90
43087;DHT22;28708;52.224;6.924;2023-02-28T01:18:47;2.60;99.90
43087;DHT22;28708;52.224;6.924;2023-02-28T01:21:16;2.50;99.90
43087;DHT22;28708;52.224;6.924;2023-02-28T01:23:44;2.50;99.90
43087;DHT22;28708;52.224;6.924;2023-02-28T01:26:13;2.50;99.90
43087;DHT22;28708;52.224;6.924;2023-02-28T01:28:39;2.50;99.90
43087;DHT22;28708;52.224;6.924;2023-02-28T01:31:05;2.60;99.90
43087;DHT22;28708;52.224;6.924;2023-02-28T01:33:31;2.60;99.90
43087;DHT22;28708;52.224;6.924;2023-02-28T01:35:59;2.50;99.90
43087;DHT22;28708;52.224;6.924;2023-02-28T01:38:25;2.50;99.90
43087;DHT22;28708;52.224;6.924;2023-02-28T01:40:53;2.50;99.90
43087;DHT22;28708;52.224;6.924;2023-02-28T01:45:47;2.60;99.90
43087;DHT22;28708;52.224;6.924;2023-02-28T01:48:12;2.60;99.90
43087;DHT22;28708;52.224;6.924;2023-02-28T01:50:41;2.60;99.90
43087;DHT22;28708;52.224;6.924;2023-02-28T01:53:14;2.50;99.90
43087;DHT22;28708;52.224;6.924;2023-02-28T01:55:46;2.50;99.90
43087;DHT22;28708;52.224;6.924;2023-02-28T01:58:13;2.50;99.90
43087;DHT22;28708;52.224;6.924;2023-02-28T02:00:38;2.50;99.90
43087;DHT22;28708;52.224;6.924;2023-02-28T02:03:08;2.50;99.90
43087;DHT22;28708;52.224;6.924;2023-02-28T02:05:38;2.50;99.90
43087;DHT22;28708;52.224;6.924;2023-02-28T02:08:09;2.40;99.90
43087;DHT22;28708;52.224;6.924;2023-02-28T02:10:44;2.40;99.90
43087;DHT22;28708;52.224;6.924;2023-02-28T02:17:25;2.50;99.90
43087;DHT22;28708;52.224;6.924;2023-02-28T02:25:32;2.40;99.90
43087;DHT22;28708;52.224;6.924;2023-02-28T02:28:11;2.50;99.90
43087;DHT22;28708;52.224;6.924;2023-02-28T02:30:51;2.50;99.90
43087;DHT22;28708;52.224;6.924;2023-02-28T02:36:30;2.40;99.90
43087;DHT22;28708;52.224;6.924;2023-02-28T02:41:53;2.50;99.90
43087;DHT22;28708;52.224;6.924;2023-02-28T02:46:45;2.50;99.90
43087;DHT22;28708;52.224;6.924;2023-02-28T02:49:21;2.50;99.90
43087;DHT22;28708;52.224;6.924;2023-02-28T02:51:48;2.50;99.90
43087;DHT22;28708;52.224;6.924;2023-02-28T02:54:20;2.50;99.90
43087;DHT22;28708;52.224;6.924;2023-02-28T02:56:49;2.50;99.90
43087;DHT22;28708;52.224;6.924;2023-02-28T02:59:19;2.60;99.90
43087;DHT22;28708;52.224;6.924;2023-02-28T03:01:55;2.50;99.90
43087;DHT22;28708;52.224;6.924;2023-02-28T03:04:25;2.40;99.90
43087;DHT22;28708;52.224;6.924;2023-02-28T03:06:53;2.40;99.90
43087;DHT22;28708;52.224;6.924;2023-02-28T03:09:22;2.40;99.90
43087;DHT22;28708;52.224;6.924;2023-02-28T03:11:48;2.50;99.90
43087;DHT22;28708;52.224;6.924;2023-02-28T03:14:32;2.50;99.90
43087;DHT22;28708;52.224;6.924;2023-02-28T03:20:17;2.40;99.90
43087;DHT22;28708;52.224;6.924;2023-02-28T03:23:07;2.50;99.90
43087;DHT22;28708;52.224;6.924;2023-02-28T03:25:57;2.50;99.90
43087;DHT22;28708;52.224;6.924;2023-02-28T03:28:32;2.60;99.90
43087;DHT22;28708;52.224;6.924;2023-02-28T03:34:06;2.60;99.90
43087;DHT22;28708;52.224;6.924;2023-02-28T03:36:38;2.60;99.90
43087;DHT22;28708;52.224;6.924;2023-02-28T03:39:16;2.60;99.90
43087;DHT22;28708;52.224;6.924;2023-02-28T03:41:47;2.70;99.90
43087;DHT22;28708;52.224;6.924;2023-02-28T03:44:23;2.70;99.90
43087;DHT22;28708;52.224;6.924;2023-02-28T03:46:59;2.70;99.90
43087;DHT22;28708;52.224;6.924;2023-02-28T03:49:34;2.60;99.90
43087;DHT22;28708;52.224;6.924;2023-02-28T03:52:03;2.60;99.90
43087;DHT22;28708;52.224;6.924;2023-02-28T03:54:47;2.70;99.90
43087;DHT22;28708;52.224;6.924;2023-02-28T03:57:30;2.60;99.90
43087;DHT22;28708;52.224;6.924;2023-02-28T04:00:02;2.60;99.90
43087;DHT22;28708;52.224;6.924;2023-02-28T04:02:38;2.60;99.90
43087;DHT22;28708;52.224;6.924;2023-02-28T04:05:05;2.50;99.90
43087;DHT22;28708;52.224;6.924;2023-02-28T04:07:31;2.60;99.90
43087;DHT22;28708;52.224;6.924;2023-02-28T04:09:57;2.60;99.90
43087;DHT22;28708;52.224;6.924;2023-02-28T04:12:23;2.60;99.90
43087;DHT22;28708;52.224;6.924;2023-02-28T04:14:49;2.50;99.90
43087;DHT22;28708;52.224;6.924;2023-02-28T04:17:16;2.50;99.90
43087;DHT22;28708;52.224;6.924;2023-02-28T04:19:42;2.40;99.90
43087;DHT22;28708;52.224;6.924;2023-02-28T04:22:08;2.50;99.90
43087;DHT22;28708;52.224;6.924;2023-02-28T04:24:34;2.50;99.90
43087;DHT22;28708;52.224;6.924;2023-02-28T04:27:00;2.60;99.90
43087;DHT22;28708;52.224;6.924;2023-02-28T04:29:31;2.50;99.90
43087;DHT22;28708;52.224;6.924;2023-02-28T04:31:58;2.40;99.90
43087;DHT22;28708;52.224;6.924;2023-02-28T04:34:25;2.40;99.90
43087;DHT22;28708;52.224;6.924;2023-02-28T04:36:51;2.40;99.90
43087;DHT22;28708;52.224;6.924;2023-02-28T04:39:19;2.40;99.90
43087;DHT22;28708;52.224;6.924;2023-02-28T04:41:46;2.40;99.90
43087;DHT22;28708;52.224;6.924;2023-02-28T04:44:12;2.40;99.90
43087;DHT22;28708;52.224;6.924;2023-02-28T04:46:38;2.50;99.90
43087;DHT22;28708;52.224;6.924;2023-02-28T04:49:03;2.40;99.90
43087;DHT22;28708;52.224;6.924;2023-02-28T04:51:29;2.50;99.90
43087;DHT22;28708;52.224;6.924;2023-02-28T04:53:55;2.40;99.90
43087;DHT22;28708;52.224;6.924;2023-02-28T04:56:21;2.40;99.90
43087;DHT22;28708;52.224;6.924;2023-02-28T04:58:47;2.50;99.90
43087;DHT22;28708;52.224;6.924;2023-02-28T05:01:20;2.50;99.90
43087;DHT22;28708;52.224;6.924;2023-02-28T05:03:46;2.40;99.90
43087;DHT22;28708;52.224;6.924;2023-02-28T05:06:13;2.40;99.90
43087;DHT22;28708;52.224;6.924;2023-02-28T05:08:39;2.50;99.90
43087;DHT22;28708;52.224;6.924;2023-02-28T05:11:17;2.50;99.90
43087;DHT22;28708;52.224;6.924;2023-02-28T05:13:43;2.50;99.90
43087;DHT22;28708;52.224;6.924;2023-02-28T05:16:08;2.40;99.90
43087;DHT22;28708;52.224;6.924;2023-02-28T05:18:34;2.50;99.90
43087;DHT22;28708;52.224;6.924;2023-02-28T05:21:00;2.40;99.90
43087;DHT22;28708;52.224;6.924;2023-02-28T05:23:28;2.40;99.90
43087;DHT22;28708;52.224;6.924;2023-02-28T05:25:54;2.40;99.90
43087;DHT22;28708;52.224;6.924;2023-02-28T05:28:20;2.30;99.90
43087;DHT22;28708;52.224;6.924;2023-02-28T05:30:46;2.30;99.90
43087;DHT22;28708;52.224;6.924;2023-02-28T05:33:12;2.30;99.90
43087;DHT22;28708;52.224;6.924;2023-02-28T05:35:39;2.30;99.90
43087;DHT22;28708;52.224;6.924;2023-02-28T05:38:06;2.30;99.90
43087;DHT22;28708;52.224;6.924;2023-02-28T05:40:31;2.30;99.90
43087;DHT22;28708;52.224;6.924;2023-02-28T05:42:57;2.30;99.90
43087;DHT22;28708;52.224;6.924;2023-02-28T05:45:23;2.30;99.90
43087;DHT22;28708;52.224;6.924;2023-02-28T05:47:49;2.30;99.90
43087;DHT22;28708;52.224;6.924;2023-02-28T05:50:14;2.20;99.90
43087;DHT22;28708;52.224;6.924;2023-02-28T05:52:40;2.10;99.90
43087;DHT22;28708;52.224;6.924;2023-02-28T05:55:06;2.10;99.90
43087;DHT22;28708;52.224;6.924;2023-02-28T05:57:32;2.00;99.90
43087;DHT22;28708;52.224;6.924;2023-02-28T05:59:57;2.10;99.90
43087;DHT22;28708;52.224;6.924;2023-02-28T06:02:23;2.10;99.90
43087;DHT22;28708;52.224;6.924;2023-02-28T06:04:49;2.10;99.90
43087;DHT22;28708;52.224;6.924;2023-02-28T06:07:14;2.10;99.90
43087;DHT22;28708;52.224;6.924;2023-02-28T06:09:40;2.10;99.90
43087;DHT22;28708;52.224;6.924;2023-02-28T06:12:06;2.10;99.90
43087;DHT22;28708;52.224;6.924;2023-02-28T06:14:34;2.10;99.90
43087;DHT22;28708;52.224;6.924;2023-02-28T06:17:01;2.20;99.90
43087;DHT22;28708;52.224;6.924;2023-02-28T06:19:27;2.20;99.90
43087;DHT22;28708;52.224;6.924;2023-02-28T06:21:53;2.00;99.90
43087;DHT22;28708;52.224;6.924;2023-02-28T06:24:20;2.00;99.90
43087;DHT22;28708;52.224;6.924;2023-02-28T06:26:46;2.00;99.90
43087;DHT22;28708;52.224;6.924;2023-02-28T06:29:12;2.00;99.90
43087;DHT22;28708;52.224;6.924;2023-02-28T06:31:43;2.10;99.90
43087;DHT22;28708;52.224;6.924;2023-02-28T06:34:09;2.00;99.90
43087;DHT22;28708;52.224;6.924;2023-02-28T06:36:38;2.10;99.90
43087;DHT22;28708;52.224;6.924;2023-02-28T06:39:04;2.20;99.90
43087;DHT22;28708;52.224;6.924;2023-02-28T06:41:30;2.20;99.90
43087;DHT22;28708;52.224;6.924;2023-02-28T06:43:56;2.20;99.90
43087;DHT22;28708;52.224;6.924;2023-02-28T06:46:22;2.20;99.90
43087;DHT22;28708;52.224;6.924;2023-02-28T06:48:48;2.10;99.90
43087;DHT22;28708;52.224;6.924;2023-02-28T06:51:18;2.10;99.90
43087;DHT22;28708;52.224;6.924;2023-02-28T06:53:45;2.10;99.90
43087;DHT22;28708;52.224;6.924;2023-02-28T06:56:13;2.20;99.90
43087;DHT22;28708;52.224;6.924;2023-02-28T06:58:40;2.20;99.90
43087;DHT22;28708;52.224;6.924;2023-02-28T07:01:07;2.20;99.90
43087;DHT22;28708;52.224;6.924;2023-02-28T07:03:34;2.20;99.90
43087;DHT22;28708;52.224;6.924;2023-02-28T07:06:00;2.20;99.90
43087;DHT22;28708;52.224;6.924;2023-02-28T07:08:26;2.20;99.90
43087;DHT22;28708;52.224;6.924;2023-02-28T07:10:54;2.10;99.90
43087;DHT22;28708;52.224;6.924;2023-02-28T07:13:20;2.00;99.90
43087;DHT22;28708;52.224;6.924;2023-02-28T07:16:01;2.10;99.90
43087;DHT22;28708;52.224;6.924;2023-02-28T07:18:28;2.20;99.90
43087;DHT22;28708;52.224;6.924;2023-02-28T07:20:54;2.20;99.90
43087;DHT22;28708;52.224;6.924;2023-02-28T07:23:19;2.20;99.90
43087;DHT22;28708;52.224;6.924;2023-02-28T07:25:45;2.10;99.90
43087;DHT22;28708;52.224;6.924;2023-02-28T07:28:11;2.20;99.90
43087;DHT22;28708;52.224;6.924;2023-02-28T07:30:37;2.10;99.90
43087;DHT22;28708;52.224;6.924;2023-02-28T07:33:03;2.20;99.90
43087;DHT22;28708;52.224;6.924;2023-02-28T07:35:29;2.10;99.90
43087;DHT22;28708;52.224;6.924;2023-02-28T07:37:57;2.10;99.90
43087;DHT22;28708;52.224;6.924;2023-02-28T07:40:23;2.20;99.90
43087;DHT22;28708;52.224;6.924;2023-02-28T07:42:49;2.20;99.90
43087;DHT22;28708;52.224;6.924;2023-02-28T07:45:16;2.20;99.90
43087;DHT22;28708;52.224;6.924;2023-02-28T07:47:43;2.20;99.90
43087;DHT22;28708;52.224;6.924;2023-02-28T07:50:11;2.30;99.90
43087;DHT22;28708;52.224;6.924;2023-02-28T07:52:37;2.30;99.90
43087;DHT22;28708;52.224;6.924;2023-02-28T07:55:04;2.30;99.90
43087;DHT22;28708;52.224;6.924;2023-02-28T07:57:30;2.40;99.90
43087;DHT22;28708;52.224;6.924;2023-02-28T07:59:56;2.50;99.90
43087;DHT22;28708;52.224;6.924;2023-02-28T08:02:22;2.50;99.90
43087;DHT22;28708;52.224;6.924;2023-02-28T08:04:47;2.50;99.90
43087;DHT22;28708;52.224;6.924;2023-02-28T08:07:14;2.60;99.90
43087;DHT22;28708;52.224;6.924;2023-02-28T08:09:41;2.70;99.90
43087;DHT22;28708;52.224;6.924;2023-02-28T08:12:08;2.80;99.90
43087;DHT22;28708;52.224;6.924;2023-02-28T08:14:35;2.90;99.90
43087;DHT22;28708;52.224;6.924;2023-02-28T08:17:00;3.10;99.90
43087;DHT22;28708;52.224;6.924;2023-02-28T08:19:26;3.20;99.90
43087;DHT22;28708;52.224;6.924;2023-02-28T08:21:52;3.30;99.90
43087;DHT22;28708;52.224;6.924;2023-02-28T08:24:18;3.40;99.90
43087;DHT22;28708;52.224;6.924;2023-02-28T08:26:43;3.50;99.90
43087;DHT22;28708;52.224;6.924;2023-02-28T08:29:09;3.60;99.90
43087;DHT22;28708;52.224;6.924;2023-02-28T08:31:35;3.80;99.90
43087;DHT22;28708;52.224;6.924;2023-02-28T08:34:06;3.80;99.90
43087;DHT22;28708;52.224;6.924;2023-02-28T08:36:31;4.00;99.90
43087;DHT22;28708;52.224;6.924;2023-02-28T08:38:57;4.20;99.90
43087;DHT22;28708;52.224;6.924;2023-02-28T08:41:23;4.30;99.90
43087;DHT22;28708;52.224;6.924;2023-02-28T08:43:49;4.30;99.90
43087;DHT22;28708;52.224;6.924;2023-02-28T08:46:14;4.40;99.90
43087;DHT22;28708;52.224;6.924;2023-02-28T08:48:40;4.40;99.90
43087;DHT22;28708;52.224;6.924;2023-02-28T08:51:17;4.60;99.90
43087;DHT22;28708;52.224;6.924;2023-02-28T08:53:47;4.60;99.90
43087;DHT22;28708;52.224;6.924;2023-02-28T08:56:16;4.60;99.90
43087;DHT22;28708;52.224;6.924;2023-02-28T08:58:46;4.70;99.90
43087;DHT22;28708;52.224;6.924;2023-02-28T09:01:14;4.70;99.90
43087;DHT22;28708;52.224;6.924;2023-02-28T09:03:40;4.90;99.90
43087;DHT22;28708;52.224;6.924;2023-02-28T09:06:07;5.00;99.90
43087;DHT22;28708;52.224;6.924;2023-02-28T09:08:34;5.00;99.90
43087;DHT22;28708;52.224;6.924;2023-02-28T09:11:00;5.10;99.90
43087;DHT22;28708;52.224;6.924;2023-02-28T09:13:27;5.40;99.90
43087;DHT22;28708;52.224;6.924;2023-02-28T09:15:54;5.20;99.90
43087;DHT22;28708;52.224;6.924;2023-02-28T09:18:19;5.10;99.90
43087;DHT22;28708;52.224;6.924;2023-02-28T09:20:45;5.00;99.90
43087;DHT22;28708;52.224;6.924;2023-02-28T09:23:12;4.80;99.90
43087;DHT22;28708;52.224;6.924;2023-02-28T09:25:44;4.80;99.90
43087;DHT22;28708;52.224;6.924;2023-02-28T09:28:10;4.90;99.90
43087;DHT22;28708;52.224;6.924;2023-02-28T09:30:36;5.00;99.90
43087;DHT22;28708;52.224;6.924;2023-02-28T09:33:02;5.00;99.90
43087;DHT22;28708;52.224;6.924;2023-02-28T09:35:28;5.10;99.90
43087;DHT22;28708;52.224;6.924;2023-02-28T09:37:56;5.20;99.90
43087;DHT22;28708;52.224;6.924;2023-02-28T09:40:24;5.20;99.90
43087;DHT22;28708;52.224;6.924;2023-02-28T09:42:53;5.40;99.90
43087;DHT22;28708;52.224;6.924;2023-02-28T09:45:33;5.50;99.90
43087;DHT22;28708;52.224;6.924;2023-02-28T09:48:04;5.50;99.90
43087;DHT22;28708;52.224;6.924;2023-02-28T09:50:41;5.50;99.90
43087;DHT22;28708;52.224;6.924;2023-02-28T09:53:30;5.60;99.90
43087;DHT22;28708;52.224;6.924;2023-02-28T09:56:13;5.80;99.90
43087;DHT22;28708;52.224;6.924;2023-02-28T09:58:47;5.80;99.90
43087;DHT22;28708;52.224;6.924;2023-02-28T10:01:24;6.50;99.60
43087;DHT22;28708;52.224;6.924;2023-02-28T10:04:00;6.50;98.10
43087;DHT22;28708;52.224;6.924;2023-02-28T10:06:41;6.40;97.20
43087;DHT22;28708;52.224;6.924;2023-02-28T10:09:17;6.40;97.60
43087;DHT22;28708;52.224;6.924;2023-02-28T10:11:44;6.30;97.00
43087;DHT22;28708;52.224;6.924;2023-02-28T10:14:17;6.40;98.10
43087;DHT22;28708;52.224;6.924;2023-02-28T10:16:55;7.30;97.10
43087;DHT22;28708;52.224;6.924;2023-02-28T10:19:34;8.40;95.20
43087;DHT22;28708;52.224;6.924;2023-02-28T10:22:12;11.10;91.80
43087;DHT22;28708;52.224;6.924;2023-02-28T10:24:42;12.10;89.30
43087;DHT22;28708;52.224;6.924;2023-02-28T10:27:16;13.10;77.20
43087;DHT22;28708;52.224;6.924;2023-02-28T10:29:44;13.60;70.60
43087;DHT22;28708;52.224;6.924;2023-02-28T10:32:14;13.00;68.00
43087;DHT22;28708;52.224;6.924;2023-02-28T10:34:40;13.50;66.30
43087;DHT22;28708;52.224;6.924;2023-02-28T10:37:06;13.30;64.90
43087;DHT22;28708;52.224;6.924;2023-02-28T10:39:42;13.70;63.40
43087;DHT22;28708;52.224;6.924;2023-02-28T10:42:26;12.60;63.80
43087;DHT22;28708;52.224;6.924;2023-02-28T10:45:12;13.10;63.30
43087;DHT22;28708;52.224;6.924;2023-02-28T10:56:04;14.50;59.20
43087;DHT22;28708;52.224;6.924;2023-02-28T11:03:42;16.50;58.40
43087;DHT22;28708;52.224;6.924;2023-02-28T11:06:24;15.30;57.70
43087;DHT22;28708;52.224;6.924;2023-02-28T11:08:59;14.90;58.00
43087;DHT22;28708;52.224;6.924;2023-02-28T11:11:28;14.80;59.50
43087;DHT22;28708;52.224;6.924;2023-02-28T11:13:57;15.10;56.60
43087;DHT22;28708;52.224;6.924;2023-02-28T11:16:32;14.40;57.90
43087;DHT22;28708;52.224;6.924;2023-02-28T11:18:58;15.50;56.80
43087;DHT22;28708;52.224;6.924;2023-02-28T11:21:33;15.30;56.70
43087;DHT22;28708;52.224;6.924;2023-02-28T11:24:12;14.50;55.70
43087;DHT22;28708;52.224;6.924;2023-02-28T11:26:45;14.80;56.70
43087;DHT22;28708;52.224;6.924;2023-02-28T11:29:27;15.00;58.40
43087;DHT22;28708;52.224;6.924;2023-02-28T11:32:13;14.40;57.00
43087;DHT22;28708;52.224;6.924;2023-02-28T11:34:40;14.20;56.70
43087;DHT22;28708;52.224;6.924;2023-02-28T11:37:12;14.40;56.80
43087;DHT22;28708;52.224;6.924;2023-02-28T11:39:38;13.90;55.80
43087;DHT22;28708;52.224;6.924;2023-02-28T11:47:29;15.10;57.60
43087;DHT22;28708;52.224;6.924;2023-02-28T11:50:20;14.30;56.00
43087;DHT22;28708;52.224;6.924;2023-02-28T11:53:01;14.80;56.20
43087;DHT22;28708;52.224;6.924;2023-02-28T11:55:33;14.00;55.80
43087;DHT22;28708;52.224;6.924;2023-02-28T12:01:15;11.70;57.80
43087;DHT22;28708;52.224;6.924;2023-02-28T12:06:33;9.00;62.10
43087;DHT22;28708;52.224;6.924;2023-02-28T12:12:21;8.00;64.80
43087;DHT22;28708;52.224;6.924;2023-02-28T12:15:14;7.70;66.90
43087;DHT22;28708;52.224;6.924;2023-02-28T12:21:05;7.70;65.50
43087;DHT22;28708;52.224;6.924;2023-02-28T12:28:38;7.40;67.20
43087;DHT22;28708;52.224;6.924;2023-02-28T12:33:43;7.50;68.50
43087;DHT22;28708;52.224;6.924;2023-02-28T12:36:13;7.40;68.00
43087;DHT22;28708;52.224;6.924;2023-02-28T12:38:44;7.20;68.10
43087;DHT22;28708;52.224;6.924;2023-02-28T12:41:12;7.40;68.30
43087;DHT22;28708;52.224;6.924;2023-02-28T12:43:44;7.30;66.50
43087;DHT22;28708;52.224;6.924;2023-02-28T12:46:28;7.30;68.30
43087;DHT22;28708;52.224;6.924;2023-02-28T12:48:56;7.10;68.40
43087;DHT22;28708;52.224;6.924;2023-02-28T12:51:24;6.90;67.60
43087;DHT22;28708;52.224;6.924;2023-02-28T12:54:24;6.90;69.10
43087;DHT22;28708;52.224;6.924;2023-02-28T12:59:34;7.20;68.70
43087;DHT22;28708;52.224;6.924;2023-02-28T13:07:49;7.60;68.40
43087;DHT22;28708;52.224;6.924;2023-02-28T13:10:22;7.80;70.50
43087;DHT22;28708;52.224;6.924;2023-02-28T13:12:52;8.00;68.60
43087;DHT22;28708;52.224;6.924;2023-02-28T13:15:26;8.10;68.40
43087;DHT22;28708;52.224;6.924;2023-02-28T13:17:56;8.20;68.90
43087;DHT22;28708;52.224;6.924;2023-02-28T13:20:34;8.10;68.90
43087;DHT22;28708;52.224;6.924;2023-02-28T13:23:00;8.20;68.40
43087;DHT22;28708;52.224;6.924;2023-02-28T13:28:03;7.60;69.30
43087;DHT22;28708;52.224;6.924;2023-02-28T13:33:34;7.80;70.30
43087;DHT22;28708;52.224;6.924;2023-02-28T13:38:48;7.60;68.70
43087;DHT22;28708;52.224;6.924;2023-02-28T13:44:20;7.90;69.20
43087;DHT22;28708;52.224;6.924;2023-02-28T13:51:55;8.00;68.60
43087;DHT22;28708;52.224;6.924;2023-02-28T14:05:18;8.20;68.70
43087;DHT22;28708;52.224;6.924;2023-02-28T14:07:53;8.10;67.30
43087;DHT22;28708;52.224;6.924;2023-02-28T14:10:29;8.00;67.10
43087;DHT22;28708;52.224;6.924;2023-02-28T14:13:14;7.90;66.70
43087;DHT22;28708;52.224;6.924;2023-02-28T14:16:00;8.10;67.50
43087;DHT22;28708;52.224;6.924;2023-02-28T14:18:36;8.40;67.30
43087;DHT22;28708;52.224;6.924;2023-02-28T14:23:50;8.20;67.70
43087;DHT22;28708;52.224;6.924;2023-02-28T14:32:13;8.50;67.10
43087;DHT22;28708;52.224;6.924;2023-02-28T14:34:58;8.40;67.70
43087;DHT22;28708;52.224;6.924;2023-02-28T14:37:30;8.40;67.10
43087;DHT22;28708;52.224;6.924;2023-02-28T14:39:58;8.50;67.80
43087;DHT22;28708;52.224;6.924;2023-02-28T14:42:36;8.30;68.60
43087;DHT22;28708;52.224;6.924;2023-02-28T14:45:04;8.30;68.60
43087;DHT22;28708;52.224;6.924;2023-02-28T14:47:34;8.30;68.60
43087;DHT22;28708;52.224;6.924;2023-02-28T14:50:02;8.30;68.10
43087;DHT22;28708;52.224;6.924;2023-02-28T14:52:32;8.30;70.70
43087;DHT22;28708;52.224;6.924;2023-02-28T14:55:01;8.20;68.60
43087;DHT22;28708;52.224;6.924;2023-02-28T14:57:30;8.20;70.50
43087;DHT22;28708;52.224;6.924;2023-02-28T15:02:33;7.90;69.70
43087;DHT22;28708;52.224;6.924;2023-02-28T15:07:35;7.90;69.70
43087;DHT22;28708;52.224;6.924;2023-02-28T15:12:37;7.50;70.90
43087;DHT22;28708;52.224;6.924;2023-02-28T15:15:05;7.40;69.80
43087;DHT22;28708;52.224;6.924;2023-02-28T15:17:34;7.60;71.80
43087;DHT22;28708;52.224;6.924;2023-02-28T15:20:00;7.60;70.60
43087;DHT22;28708;52.224;6.924;2023-02-28T15:22:33;7.80;71.20
43087;DHT22;28708;52.224;6.924;2023-02-28T15:25:02;7.70;69.80
43087;DHT22;28708;52.224;6.924;2023-02-28T15:27:32;7.70;71.40
43087;DHT22;28708;52.224;6.924;2023-02-28T15:30:03;7.50;70.90
43087;DHT22;28708;52.224;6.924;2023-02-28T15:32:36;7.60;71.90
43087;DHT22;28708;52.224;6.924;2023-02-28T15:37:53;7.30;71.10
43087;DHT22;28708;52.224;6.924;2023-02-28T15:40:27;7.40;71.40
43087;DHT22;28708;52.224;6.924;2023-02-28T15:43:11;7.40;71.80
43087;DHT22;28708;52.224;6.924;2023-02-28T15:45:47;7.50;71.70
43087;DHT22;28708;52.224;6.924;2023-02-28T15:48:20;7.40;72.40
43087;DHT22;28708;52.224;6.924;2023-02-28T15:50:52;7.30;71.90
43087;DHT22;28708;52.224;6.924;2023-02-28T15:53:25;7.60;71.50
43087;DHT22;28708;52.224;6.924;2023-02-28T15:55:57;7.50;72.90
43087;DHT22;28708;52.224;6.924;2023-02-28T15:58:24;7.30;73.20
43087;DHT22;28708;52.224;6.924;2023-02-28T16:01:19;7.20;72.30
43087;DHT22;28708;52.224;6.924;2023-02-28T16:03:50;7.00;73.10
43087;DHT22;28708;52.224;6.924;2023-02-28T16:08:42;7.00;73.90
43087;DHT22;28708;52.224;6.924;2023-02-28T16:11:11;7.10;74.60
43087;DHT22;28708;52.224;6.924;2023-02-28T16:13:37;7.00;74.80
43087;DHT22;28708;52.224;6.924;2023-02-28T16:16:03;6.90;74.60
43087;DHT22;28708;52.224;6.924;2023-02-28T16:18:29;6.80;75.70
43087;DHT22;28708;52.224;6.924;2023-02-28T16:20:54;6.70;75.90
43087;DHT22;28708;52.224;6.924;2023-02-28T16:23:20;6.60;76.20
43087;DHT22;28708;52.224;6.924;2023-02-28T16:25:45;6.50;76.20
43087;DHT22;28708;52.224;6.924;2023-02-28T16:28:24;6.50;77.00
43087;DHT22;28708;52.224;6.924;2023-02-28T16:30:53;6.40;78.80
43087;DHT22;28708;52.224;6.924;2023-02-28T16:33:19;6.30;77.00
43087;DHT22;28708;52.224;6.924;2023-02-28T16:35:45;6.20;77.70
43087;DHT22;28708;52.224;6.924;2023-02-28T16:38:10;6.10;77.30
43087;DHT22;28708;52.224;6.924;2023-02-28T16:40:36;6.00;77.40
43087;DHT22;28708;52.224;6.924;2023-02-28T16:43:07;6.00;77.60
43087;DHT22;28708;52.224;6.924;2023-02-28T16:45:35;5.90;78.60
43087;DHT22;28708;52.224;6.924;2023-02-28T16:48:01;5.80;77.20
43087;DHT22;28708;52.224;6.924;2023-02-28T16:50:28;5.80;78.30
43087;DHT22;28708;52.224;6.924;2023-02-28T16:52:55;5.80;79.30
43087;DHT22;28708;52.224;6.924;2023-02-28T16:55:23;5.70;79.80
43087;DHT22;28708;52.224;6.924;2023-02-28T16:57:55;5.70;79.20
43087;DHT22;28708;52.224;6.924;2023-02-28T17:00:21;5.70;79.40
43087;DHT22;28708;52.224;6.924;2023-02-28T17:02:47;5.70;80.10
43087;DHT22;28708;52.224;6.924;2023-02-28T17:05:13;5.60;80.70
43087;DHT22;28708;52.224;6.924;2023-02-28T17:07:41;5.50;81.60
43087;DHT22;28708;52.224;6.924;2023-02-28T17:12:39;5.40;81.90
43087;DHT22;28708;52.224;6.924;2023-02-28T17:15:05;5.30;82.10
43087;DHT22;28708;52.224;6.924;2023-02-28T17:17:31;5.20;82.70
43087;DHT22;28708;52.224;6.924;2023-02-28T17:19:57;5.20;83.00
43087;DHT22;28708;52.224;6.924;2023-02-28T17:22:23;5.20;82.90
43087;DHT22;28708;52.224;6.924;2023-02-28T17:24:51;5.20;83.30
43087;DHT22;28708;52.224;6.924;2023-02-28T17:27:16;5.20;83.40
43087;DHT22;28708;52.224;6.924;2023-02-28T17:29:42;5.10;83.80
43087;DHT22;28708;52.224;6.924;2023-02-28T17:32:08;5.10;83.50
43087;DHT22;28708;52.224;6.924;2023-02-28T17:34:33;5.10;83.70
43087;DHT22;28708;52.224;6.924;2023-02-28T17:36:59;5.00;84.40
43087;DHT22;28708;52.224;6.924;2023-02-28T17:39:25;4.90;84.30
43087;DHT22;28708;52.224;6.924;2023-02-28T17:41:54;4.80;84.90
43087;DHT22;28708;52.224;6.924;2023-02-28T17:44:21;4.70;86.00
43087;DHT22;28708;52.224;6.924;2023-02-28T17:46:47;4.60;86.30
43087;DHT22;28708;52.224;6.924;2023-02-28T17:49:15;4.60;86.90
43087;DHT22;28708;52.224;6.924;2023-02-28T17:51:41;4.60;86.60
43087;DHT22;28708;52.224;6.924;2023-02-28T17:54:07;4.60;87.20
43087;DHT22;28708;52.224;6.924;2023-02-28T17:56:33;4.60;87.30
43087;DHT22;28708;52.224;6.924;2023-02-28T17:58:59;4.50;87.80
43087;DHT22;28708;52.224;6.924;2023-02-28T18:01:25;4.40;88.30
43087;DHT22;28708;52.224;6.924;2023-02-28T18:03:52;4.40;88.70